sensor_id;sensor_type;location;lat;lon;timestamp;pressure;altitude;pressure_sealevel;temperature;humidity
32081;BME280;18593;51.426;7.030;2023-04-01T00:01:15;98301.00;;;11.09;78.52
32081;BME280;18593;51.426;7.030;2023-04-01T00:03:44;98304.75;;;11.03;78.94
32081;BME280;18593;51.426;7.030;2023-04-01T00:06:12;98311.13;;;11.07;78.98
32081;BME280;18593;51.426;7.030;2023-04-01T00:08:39;98300.44;;;11.07;78.94
32081;BME280;18593;51.426;7.030;2023-04-01T00:11:06;98297.81;;;11.13;78.68
32081;BME280;18593;51.426;7.030;2023-04-01T00:13:33;98286.31;;;11.17;78.50
32081;BME280;18593;51.426;7.030;2023-04-01T00:16:01;98304.97;;;11.17;78.13
32081;BME280;18593;51.426;7.030;2023-04-01T00:18:29;98291.13;;;11.15;78.20
32081;BME280;18593;51.426;7.030;2023-04-01T00:20:58;98301.00;;;11.15;78.26
32081;BME280;18593;51.426;7.030;2023-04-01T00:23:25;98302.88;;;11.19;78.06
32081;BME280;18593;51.426;7.030;2023-04-01T00:25:52;98293.78;;;11.20;78.07
32081;BME280;18593;51.426;7.030;2023-04-01T00:28:20;98291.66;;;11.17;78.15
32081;BME280;18593;51.426;7.030;2023-04-01T00:30:47;98288.47;;;11.15;78.32
32081;BME280;18593;51.426;7.030;2023-04-01T00:33:14;98290.84;;;11.12;78.45
32081;BME280;18593;51.426;7.030;2023-04-01T00:35:42;98292.22;;;11.09;78.35
32081;BME280;18593;51.426;7.030;2023-04-01T00:38:10;98291.41;;;11.08;78.83
32081;BME280;18593;51.426;7.030;2023-04-01T00:40:39;98294.06;;;11.08;78.66
32081;BME280;18593;51.426;7.030;2023-04-01T00:43:11;98293.00;;;11.09;78.65
32081;BME280;18593;51.426;7.030;2023-04-01T00:45:39;98284.44;;;11.07;78.66
32081;BME280;18593;51.426;7.030;2023-04-01T00:48:09;98280.47;;;11.10;78.49
32081;BME280;18593;51.426;7.030;2023-04-01T00:50:37;98285.28;;;11.13;78.61
32081;BME280;18593;51.426;7.030;2023-04-01T00:53:06;98291.13;;;11.15;78.48
32081;BME280;18593;51.426;7.030;2023-04-01T00:55:36;98275.13;;;11.15;78.23
32081;BME280;18593;51.426;7.030;2023-04-01T00:58:07;98279.13;;;11.07;78.26
32081;BME280;18593;51.426;7.030;2023-04-01T01:00:35;98292.72;;;11.11;78.52
32081;BME280;18593;51.426;7.030;2023-04-01T01:03:03;98288.47;;;11.10;78.59
32081;BME280;18593;51.426;7.030;2023-04-01T01:05:37;98287.41;;;11.06;78.98
32081;BME280;18593;51.426;7.030;2023-04-01T01:08:09;98282.63;;;11.03;79.02
32081;BME280;18593;51.426;7.030;2023-04-01T01:10:43;98289.78;;;11.02;79.13
32081;BME280;18593;51.426;7.030;2023-04-01T01:13:16;98280.47;;;11.05;79.12
32081;BME280;18593;51.426;7.030;2023-04-01T01:15:45;98288.47;;;11.05;78.91
32081;BME280;18593;51.426;7.030;2023-04-01T01:18:18;98283.41;;;11.03;78.82
32081;BME280;18593;51.426;7.030;2023-04-01T01:26:54;98272.47;;;11.05;78.82
32081;BME280;18593;51.426;7.030;2023-04-01T01:29:35;98281.53;;;11.04;78.85
32081;BME280;18593;51.426;7.030;2023-04-01T01:32:15;98275.94;;;11.00;78.96
32081;BME280;18593;51.426;7.030;2023-04-01T01:34:48;98278.59;;;10.95;78.86
32081;BME280;18593;51.426;7.030;2023-04-01T01:37:23;98286.09;;;10.93;79.47
32081;BME280;18593;51.426;7.030;2023-04-01T01:39:53;98285.81;;;10.95;79.50
32081;BME280;18593;51.426;7.030;2023-04-01T01:42:22;98283.41;;;10.98;79.36
32081;BME280;18593;51.426;7.030;2023-04-01T01:44:51;98277.53;;;11.01;79.12
32081;BME280;18593;51.426;7.030;2023-04-01T01:47:20;98268.72;;;11.01;79.08
32081;BME280;18593;51.426;7.030;2023-04-01T01:49:48;98278.31;;;11.02;78.85
32081;BME280;18593;51.426;7.030;2023-04-01T01:52:16;98274.59;;;10.98;78.49
32081;BME280;18593;51.426;7.030;2023-04-01T01:54:49;98279.69;;;10.94;79.05
32081;BME280;18593;51.426;7.030;2023-04-01T01:57:17;98264.75;;;10.98;79.02
32081;BME280;18593;51.426;7.030;2023-04-01T01:59:49;98275.13;;;11.00;78.85
32081;BME280;18593;51.426;7.030;2023-04-01T02:02:23;98270.09;;;10.98;78.61
32081;BME280;18593;51.426;7.030;2023-04-01T02:04:51;98263.91;;;10.98;78.72
32081;BME280;18593;51.426;7.030;2023-04-01T02:07:21;98261.81;;;11.00;78.39
32081;BME280;18593;51.426;7.030;2023-04-01T02:09:52;98270.31;;;11.02;78.66
32081;BME280;18593;51.426;7.030;2023-04-01T02:12:19;98270.31;;;11.02;78.62
32081;BME280;18593;51.426;7.030;2023-04-01T02:14:50;98270.31;;;11.02;78.67
32081;BME280;18593;51.426;7.030;2023-04-01T02:17:20;98275.66;;;10.97;78.82
32081;BME280;18593;51.426;7.030;2023-04-01T02:19:49;98273.28;;;10.95;79.07
32081;BME280;18593;51.426;7.030;2023-04-01T02:22:20;98277.00;;;10.94;78.98
32081;BME280;18593;51.426;7.030;2023-04-01T02:24:48;98272.47;;;10.95;78.82
32081;BME280;18593;51.426;7.030;2023-04-01T02:27:17;98277.00;;;10.94;79.08
32081;BME280;18593;51.426;7.030;2023-04-01T02:29:45;98273.78;;;10.92;78.73
32081;BME280;18593;51.426;7.030;2023-04-01T02:32:12;98284.75;;;10.91;79.02
32081;BME280;18593;51.426;7.030;2023-04-01T02:34:39;98289.56;;;10.94;79.14
32081;BME280;18593;51.426;7.030;2023-04-01T02:37:07;98281.78;;;10.87;79.33
32081;BME280;18593;51.426;7.030;2023-04-01T02:39:34;98283.66;;;10.87;79.56
32081;BME280;18593;51.426;7.030;2023-04-01T02:42:01;98280.72;;;10.88;79.73
32081;BME280;18593;51.426;7.030;2023-04-01T02:44:30;98283.66;;;10.92;79.63
32081;BME280;18593;51.426;7.030;2023-04-01T02:46:57;98286.34;;;10.92;79.49
32081;BME280;18593;51.426;7.030;2023-04-01T02:49:24;98279.41;;;10.91;79.46
32081;BME280;18593;51.426;7.030;2023-04-01T02:51:51;98289.28;;;10.90;79.66
32081;BME280;18593;51.426;7.030;2023-04-01T02:54:19;98282.06;;;10.91;79.53
32081;BME280;18593;51.426;7.030;2023-04-01T02:56:46;98285.25;;;10.88;79.64
32081;BME280;18593;51.426;7.030;2023-04-01T02:59:13;98287.69;;;10.89;79.87
32081;BME280;18593;51.426;7.030;2023-04-01T03:01:41;98284.75;;;10.91;79.67
32081;BME280;18593;51.426;7.030;2023-04-01T03:04:08;98289.78;;;10.92;79.66
32081;BME280;18593;51.426;7.030;2023-04-01T03:06:35;98293.81;;;10.95;79.77
32081;BME280;18593;51.426;7.030;2023-04-01T03:09:03;98291.13;;;10.95;79.73
32081;BME280;18593;51.426;7.030;2023-04-01T03:11:30;98284.47;;;10.97;79.66
32081;BME280;18593;51.426;7.030;2023-04-01T03:13:57;98292.72;;;10.96;79.76
32081;BME280;18593;51.426;7.030;2023-04-01T03:16:24;98291.66;;;10.97;79.44
32081;BME280;18593;51.426;7.030;2023-04-01T03:18:53;98291.94;;;10.90;79.88
32081;BME280;18593;51.426;7.030;2023-04-01T03:21:23;98286.34;;;10.87;80.06
32081;BME280;18593;51.426;7.030;2023-04-01T03:23:50;98297.78;;;10.87;80.06
32081;BME280;18593;51.426;7.030;2023-04-01T03:26:18;98291.94;;;10.90;80.11
32081;BME280;18593;51.426;7.030;2023-04-01T03:28:45;98301.25;;;10.88;80.20
32081;BME280;18593;51.426;7.030;2023-04-01T03:31:12;98297.56;;;10.89;80.19
32081;BME280;18593;51.426;7.030;2023-04-01T03:33:47;98304.19;;;10.86;80.21
32081;BME280;18593;51.426;7.030;2023-04-01T03:36:15;98301.53;;;10.86;80.38
32081;BME280;18593;51.426;7.030;2023-04-01T03:38:43;98307.38;;;10.83;80.73
32081;BME280;18593;51.426;7.030;2023-04-01T03:41:13;98314.88;;;10.81;80.78
32081;BME280;18593;51.426;7.030;2023-04-01T03:43:40;98314.06;;;10.80;80.96
32081;BME280;18593;51.426;7.030;2023-04-01T03:46:07;98317.25;;;10.82;80.75
32081;BME280;18593;51.426;7.030;2023-04-01T03:48:35;98309.25;;;10.82;80.65
32081;BME280;18593;51.426;7.030;2023-04-01T03:51:05;98312.47;;;10.85;80.68
32081;BME280;18593;51.426;7.030;2023-04-01T03:53:34;98317.25;;;10.88;80.60
32081;BME280;18593;51.426;7.030;2023-04-01T03:56:04;98312.19;;;10.91;80.36
32081;BME280;18593;51.426;7.030;2023-04-01T03:58:32;98314.88;;;10.91;80.48
32081;BME280;18593;51.426;7.030;2023-04-01T04:01:01;98312.19;;;10.91;80.46
32081;BME280;18593;51.426;7.030;2023-04-01T04:03:29;98311.41;;;10.91;80.52
32081;BME280;18593;51.426;7.030;2023-04-01T04:05:56;98313.56;;;10.94;80.30
32081;BME280;18593;51.426;7.030;2023-04-01T04:08:23;98314.88;;;10.96;80.23
32081;BME280;18593;51.426;7.030;2023-04-01T04:10:55;98319.41;;;10.96;80.12
32081;BME280;18593;51.426;7.030;2023-04-01T04:13:23;98320.75;;;10.93;80.28
32081;BME280;18593;51.426;7.030;2023-04-01T04:15:58;98317.81;;;10.95;80.17
32081;BME280;18593;51.426;7.030;2023-04-01T04:18:25;98324.75;;;10.96;80.01
32081;BME280;18593;51.426;7.030;2023-04-01T04:20:52;98313.28;;;10.95;80.06
32081;BME280;18593;51.426;7.030;2023-04-01T04:23:20;98322.34;;;10.94;80.05
32081;BME280;18593;51.426;7.030;2023-04-01T04:25:56;98321.00;;;10.92;80.06
32081;BME280;18593;51.426;7.030;2023-04-01T04:28:24;98322.88;;;10.91;80.27
32081;BME280;18593;51.426;7.030;2023-04-01T04:30:52;98319.94;;;10.93;80.16
32081;BME280;18593;51.426;7.030;2023-04-01T04:33:20;98326.59;;;10.90;80.20
32081;BME280;18593;51.426;7.030;2023-04-01T04:35:47;98322.88;;;10.91;80.31
32081;BME280;18593;51.426;7.030;2023-04-01T04:38:15;98334.06;;;10.88;80.50
32081;BME280;18593;51.426;7.030;2023-04-01T04:40:43;98330.59;;;10.88;80.42
32081;BME280;18593;51.426;7.030;2023-04-01T04:43:13;98326.88;;;10.83;80.63
32081;BME280;18593;51.426;7.030;2023-04-01T04:45:41;98330.06;;;10.86;80.43
32081;BME280;18593;51.426;7.030;2023-04-01T04:48:09;98335.41;;;10.86;80.42
32081;BME280;18593;51.426;7.030;2023-04-01T04:50:37;98337.00;;;10.87;80.60
32081;BME280;18593;51.426;7.030;2023-04-01T04:53:03;98340.75;;;10.86;80.50
32081;BME280;18593;51.426;7.030;2023-04-01T04:55:32;98340.75;;;10.86;80.58
32081;BME280;18593;51.426;7.030;2023-04-01T04:58:23;98338.34;;;10.89;80.38
32081;BME280;18593;51.426;7.030;2023-04-01T05:00:51;98346.88;;;10.91;80.36
32081;BME280;18593;51.426;7.030;2023-04-01T05:03:23;98340.75;;;10.91;80.24
32081;BME280;18593;51.426;7.030;2023-04-01T05:05:50;98345.56;;;10.89;80.47
32081;BME280;18593;51.426;7.030;2023-04-01T05:08:18;98339.16;;;10.90;80.39
32081;BME280;18593;51.426;7.030;2023-04-01T05:10:46;98344.22;;;10.91;80.55
32081;BME280;18593;51.426;7.030;2023-04-01T05:13:13;98342.88;;;10.94;80.36
32081;BME280;18593;51.426;7.030;2023-04-01T05:15:42;98346.34;;;10.94;80.38
32081;BME280;18593;51.426;7.030;2023-04-01T05:18:09;98345.78;;;10.92;80.49
32081;BME280;18593;51.426;7.030;2023-04-01T05:20:36;98349.53;;;10.91;80.41
32081;BME280;18593;51.426;7.030;2023-04-01T05:23:03;98350.34;;;10.92;80.62
32081;BME280;18593;51.426;7.030;2023-04-01T05:25:30;98340.75;;;10.91;80.74
32081;BME280;18593;51.426;7.030;2023-04-01T05:27:58;98352.47;;;10.90;80.70
32081;BME280;18593;51.426;7.030;2023-04-01T05:30:25;98351.94;;;10.88;80.80
32081;BME280;18593;51.426;7.030;2023-04-01T05:33:06;98360.47;;;10.90;80.69
32081;BME280;18593;51.426;7.030;2023-04-01T05:35:33;98357.25;;;10.93;80.70
32081;BME280;18593;51.426;7.030;2023-04-01T05:38:01;98361.00;;;10.92;80.88
32081;BME280;18593;51.426;7.030;2023-04-01T05:40:28;98358.88;;;10.89;80.79
32081;BME280;18593;51.426;7.030;2023-04-01T05:42:56;98359.69;;;10.89;80.85
32081;BME280;18593;51.426;7.030;2023-04-01T05:45:23;98361.00;;;10.87;81.03
32081;BME280;18593;51.426;7.030;2023-04-01T05:48:10;98362.59;;;10.88;81.08
32081;BME280;18593;51.426;7.030;2023-04-01T05:50:40;98369.00;;;10.87;81.15
32081;BME280;18593;51.426;7.030;2023-04-01T05:53:08;98365.25;;;10.88;81.36
32081;BME280;18593;51.426;7.030;2023-04-01T05:55:36;98363.16;;;10.90;81.07
32081;BME280;18593;51.426;7.030;2023-04-01T05:58:04;98364.75;;;10.91;81.04
32081;BME280;18593;51.426;7.030;2023-04-01T06:00:35;98370.59;;;10.82;81.43
32081;BME280;18593;51.426;7.030;2023-04-01T06:03:02;98378.59;;;10.82;81.55
32081;BME280;18593;51.426;7.030;2023-04-01T06:05:37;98371.66;;;10.81;81.76
32081;BME280;18593;51.426;7.030;2023-04-01T06:08:12;98378.59;;;10.82;81.75
32081;BME280;18593;51.426;7.030;2023-04-01T06:10:55;98373.81;;;10.79;81.83
32081;BME280;18593;51.426;7.030;2023-04-01T06:13:34;98374.88;;;10.83;81.75
32081;BME280;18593;51.426;7.030;2023-04-01T06:16:10;98387.13;;;10.85;81.77
32081;BME280;18593;51.426;7.030;2023-04-01T06:18:45;98383.94;;;10.88;81.53
32081;BME280;18593;51.426;7.030;2023-04-01T06:21:37;98387.66;;;10.92;81.47
32081;BME280;18593;51.426;7.030;2023-04-01T06:24:24;98384.19;;;10.86;81.55
32081;BME280;18593;51.426;7.030;2023-04-01T06:26:58;98391.13;;;10.87;81.73
32081;BME280;18593;51.426;7.030;2023-04-01T06:32:46;98398.88;;;10.89;81.84
32081;BME280;18593;51.426;7.030;2023-04-01T06:35:21;98402.88;;;10.91;81.78
32081;BME280;18593;51.426;7.030;2023-04-01T06:38:10;98396.22;;;10.94;81.75
32081;BME280;18593;51.426;7.030;2023-04-01T06:41:06;98405.03;;;10.94;81.66
32081;BME280;18593;51.426;7.030;2023-04-01T06:43:44;98397.03;;;10.94;81.71
32081;BME280;18593;51.426;7.030;2023-04-01T06:46:38;98408.50;;;10.95;81.80
32081;BME280;18593;51.426;7.030;2023-04-01T06:49:41;98406.06;;;10.88;81.85
32081;BME280;18593;51.426;7.030;2023-04-01T06:52:33;98408.19;;;10.86;82.23
32081;BME280;18593;51.426;7.030;2023-04-01T06:55:41;98403.13;;;10.85;82.22
32081;BME280;18593;51.426;7.030;2023-04-01T06:58:21;98400.19;;;10.86;82.22
32081;BME280;18593;51.426;7.030;2023-04-01T07:00:51;98411.94;;;10.90;82.35
32081;BME280;18593;51.426;7.030;2023-04-01T07:03:21;98413.53;;;10.91;82.20
32081;BME280;18593;51.426;7.030;2023-04-01T07:05:50;98412.47;;;10.87;82.15
32081;BME280;18593;51.426;7.030;2023-04-01T07:08:21;98410.59;;;10.88;82.37
32081;BME280;18593;51.426;7.030;2023-04-01T07:10:53;98418.34;;;10.89;82.68
32081;BME280;18593;51.426;7.030;2023-04-01T07:13:47;98417.28;;;10.90;82.58
32081;BME280;18593;51.426;7.030;2023-04-01T07:16:18;98425.56;;;10.94;82.42
32081;BME280;18593;51.426;7.030;2023-04-01T07:18:49;98417.56;;;10.94;82.27
32081;BME280;18593;51.426;7.030;2023-04-01T07:21:25;98424.50;;;10.95;82.23
32081;BME280;18593;51.426;7.030;2023-04-01T07:23:58;98424.50;;;10.95;82.09
32081;BME280;18593;51.426;7.030;2023-04-01T07:26:42;98423.94;;;10.88;82.26
32081;BME280;18593;51.426;7.030;2023-04-01T07:29:14;98427.66;;;10.87;82.47
32081;BME280;18593;51.426;7.030;2023-04-01T07:31:59;98437.25;;;10.82;82.88
32081;BME280;18593;51.426;7.030;2023-04-01T07:34:32;98432.47;;;10.85;82.71
32081;BME280;18593;51.426;7.030;2023-04-01T07:37:04;98439.69;;;10.84;82.57
32081;BME280;18593;51.426;7.030;2023-04-01T07:39:40;98437.00;;;10.79;82.81
32081;BME280;18593;51.426;7.030;2023-04-01T07:42:22;98437.00;;;10.79;83.37
32081;BME280;18593;51.426;7.030;2023-04-01T07:44:54;98441.78;;;10.77;83.39
32081;BME280;18593;51.426;7.030;2023-04-01T07:47:39;98443.91;;;10.80;83.44
32081;BME280;18593;51.426;7.030;2023-04-01T07:50:17;98446.59;;;10.80;83.67
32081;BME280;18593;51.426;7.030;2023-04-01T07:52:50;98454.59;;;10.85;83.67
32081;BME280;18593;51.426;7.030;2023-04-01T07:55:25;98452.47;;;10.87;83.45
32081;BME280;18593;51.426;7.030;2023-04-01T07:57:59;98460.47;;;10.87;83.18
32081;BME280;18593;51.426;7.030;2023-04-01T08:00:37;98462.59;;;10.85;83.11
32081;BME280;18593;51.426;7.030;2023-04-01T08:03:31;98467.13;;;10.85;83.07
32081;BME280;18593;51.426;7.030;2023-04-01T08:06:04;98462.88;;;10.83;83.15
32081;BME280;18593;51.426;7.030;2023-04-01T08:08:38;98469.25;;;10.82;83.12
32081;BME280;18593;51.426;7.030;2023-04-01T08:11:35;98472.97;;;10.81;83.49
32081;BME280;18593;51.426;7.030;2023-04-01T08:14:29;98476.72;;;10.80;83.52
32081;BME280;18593;51.426;7.030;2023-04-01T08:17:20;98480.97;;;10.76;83.24
32081;BME280;18593;51.426;7.030;2023-04-01T08:19:58;98480.69;;;10.78;83.47
32081;BME280;18593;51.426;7.030;2023-04-01T08:22:34;98481.25;;;10.80;83.76
32081;BME280;18593;51.426;7.030;2023-04-01T08:25:16;98491.13;;;10.79;83.82
32081;BME280;18593;51.426;7.030;2023-04-01T08:27:45;98498.31;;;10.79;83.77
32081;BME280;18593;51.426;7.030;2023-04-01T08:30:19;98505.75;;;10.77;83.86
32081;BME280;18593;51.426;7.030;2023-04-01T08:32:48;98507.34;;;10.78;83.87
32081;BME280;18593;51.426;7.030;2023-04-01T08:35:24;98509.50;;;10.81;84.21
32081;BME280;18593;51.426;7.030;2023-04-01T08:37:55;98509.22;;;10.77;84.25
32081;BME280;18593;51.426;7.030;2023-04-01T08:40:39;98514.56;;;10.77;84.51
32081;BME280;18593;51.426;7.030;2023-04-01T08:43:10;98508.44;;;10.77;84.54
32081;BME280;18593;51.426;7.030;2023-04-01T08:46:12;98520.69;;;10.78;84.72
32081;BME280;18593;51.426;7.030;2023-04-01T08:49:01;98523.91;;;10.80;84.70
32081;BME280;18593;51.426;7.030;2023-04-01T08:52:07;98524.22;;;10.83;84.60
32081;BME280;18593;51.426;7.030;2023-04-01T08:54:44;98517.25;;;10.82;84.14
32081;BME280;18593;51.426;7.030;2023-04-01T08:57:21;98532.19;;;10.78;84.67
32081;BME280;18593;51.426;7.030;2023-04-01T09:00:31;98535.38;;;10.80;84.66
32081;BME280;18593;51.426;7.030;2023-04-01T09:03:44;98533.78;;;10.79;84.46
32081;BME280;18593;51.426;7.030;2023-04-01T09:06:35;98538.06;;;10.80;84.59
32081;BME280;18593;51.426;7.030;2023-04-01T09:12:22;98543.91;;;10.82;84.82
32081;BME280;18593;51.426;7.030;2023-04-01T09:15:04;98545.28;;;10.85;85.17
32081;BME280;18593;51.426;7.030;2023-04-01T09:21:04;98549.00;;;10.84;85.40
32081;BME280;18593;51.426;7.030;2023-04-01T09:23:43;98548.75;;;10.86;85.49
32081;BME280;18593;51.426;7.030;2023-04-01T09:26:25;98558.31;;;10.81;85.34
32081;BME280;18593;51.426;7.030;2023-04-01T09:28:58;98557.78;;;10.79;85.48
32081;BME280;18593;51.426;7.030;2023-04-01T09:31:39;98564.44;;;10.82;85.70
32081;BME280;18593;51.426;7.030;2023-04-01T09:34:52;98566.34;;;10.87;85.58
32081;BME280;18593;51.426;7.030;2023-04-01T09:37:34;98578.09;;;10.91;85.27
32081;BME280;18593;51.426;7.030;2023-04-01T09:40:17;98582.34;;;10.92;85.64
32081;BME280;18593;51.426;7.030;2023-04-01T09:46:10;98578.91;;;10.96;85.28
32081;BME280;18593;51.426;7.030;2023-04-01T09:49:02;98587.72;;;10.97;85.30
32081;BME280;18593;51.426;7.030;2023-04-01T09:51:37;98581.06;;;10.99;85.44
32081;BME280;18593;51.426;7.030;2023-04-01T09:54:24;98586.13;;;11.01;85.36
32081;BME280;18593;51.426;7.030;2023-04-01T09:57:08;98585.88;;;11.02;85.83
32081;BME280;18593;51.426;7.030;2023-04-01T09:59:57;98588.81;;;11.06;86.23
32081;BME280;18593;51.426;7.030;2023-04-01T10:12:14;98601.16;;;11.22;86.41
32081;BME280;18593;51.426;7.030;2023-04-01T10:18:12;98604.91;;;11.26;85.87
32081;BME280;18593;51.426;7.030;2023-04-01T10:20:57;98608.66;;;11.25;86.01
32081;BME280;18593;51.426;7.030;2023-04-01T10:27:27;98614.53;;;11.27;86.14
32081;BME280;18593;51.426;7.030;2023-04-01T10:30:19;98617.75;;;11.29;86.08
32081;BME280;18593;51.426;7.030;2023-04-01T10:39:17;98616.13;;;11.28;86.37
32081;BME280;18593;51.426;7.030;2023-04-01T10:45:31;98617.75;;;11.29;86.36
32081;BME280;18593;51.426;7.030;2023-04-01T10:48:12;98619.91;;;11.32;86.29
32081;BME280;18593;51.426;7.030;2023-04-01T10:54:15;98625.75;;;11.34;86.25
32081;BME280;18593;51.426;7.030;2023-04-01T10:57:43;98634.03;;;11.33;86.06
32081;BME280;18593;51.426;7.030;2023-04-01T11:04:29;98633.72;;;11.24;86.61
32081;BME280;18593;51.426;7.030;2023-04-01T11:07:43;98646.56;;;11.27;86.43
32081;BME280;18593;51.426;7.030;2023-04-01T11:10:32;98650.00;;;11.23;86.62
32081;BME280;18593;51.426;7.030;2023-04-01T11:16:48;98662.00;;;11.20;86.08
32081;BME280;18593;51.426;7.030;2023-04-01T11:19:41;98660.13;;;11.21;86.20
32081;BME280;18593;51.426;7.030;2023-04-01T11:25:40;98664.69;;;11.25;87.00
32081;BME280;18593;51.426;7.030;2023-04-01T11:29:01;98674.84;;;11.28;86.62
32081;BME280;18593;51.426;7.030;2023-04-01T11:31:37;98670.59;;;11.27;87.00
32081;BME280;18593;51.426;7.030;2023-04-01T11:34:14;98679.91;;;11.25;86.63
32081;BME280;18593;51.426;7.030;2023-04-01T11:36:48;98680.44;;;11.27;86.83
32081;BME280;18593;51.426;7.030;2023-04-01T11:39:29;98679.91;;;11.30;87.00
32081;BME280;18593;51.426;7.030;2023-04-01T11:42:22;98686.09;;;11.35;87.31
32081;BME280;18593;51.426;7.030;2023-04-01T11:45:19;98686.63;;;11.38;87.28
32081;BME280;18593;51.426;7.030;2023-04-01T11:48:08;98688.50;;;11.37;87.32
32081;BME280;18593;51.426;7.030;2023-04-01T11:51:10;98695.44;;;11.38;87.47
32081;BME280;18593;51.426;7.030;2023-04-01T11:53:47;98692.50;;;11.40;87.91
32081;BME280;18593;51.426;7.030;2023-04-01T11:56:27;98699.44;;;11.41;87.91
32081;BME280;18593;51.426;7.030;2023-04-01T11:59:09;98701.88;;;11.42;87.37
32081;BME280;18593;51.426;7.030;2023-04-01T12:01:52;98702.69;;;11.43;87.32
32081;BME280;18593;51.426;7.030;2023-04-01T12:07:15;98713.63;;;11.46;87.37
32081;BME280;18593;51.426;7.030;2023-04-01T12:09:49;98720.03;;;11.50;87.00
32081;BME280;18593;51.426;7.030;2023-04-01T12:12:23;98723.50;;;11.51;86.56
32081;BME280;18593;51.426;7.030;2023-04-01T12:15:00;98725.16;;;11.52;86.37
32081;BME280;18593;51.426;7.030;2023-04-01T12:17:35;98722.19;;;11.48;86.27
32081;BME280;18593;51.426;7.030;2023-04-01T12:20:20;98724.84;;;11.43;86.13
32081;BME280;18593;51.426;7.030;2023-04-01T12:22:55;98724.84;;;11.43;86.40
32081;BME280;18593;51.426;7.030;2023-04-01T12:28:14;98736.31;;;11.44;87.07
32081;BME280;18593;51.426;7.030;2023-04-01T12:30:53;98741.09;;;11.42;86.92
32081;BME280;18593;51.426;7.030;2023-04-01T12:36:18;98749.66;;;11.44;87.36
32081;BME280;18593;51.426;7.030;2023-04-01T12:38:55;98750.72;;;11.43;87.35
32081;BME280;18593;51.426;7.030;2023-04-01T12:41:30;98750.47;;;11.44;87.39
32081;BME280;18593;51.426;7.030;2023-04-01T12:47:01;98765.44;;;11.50;87.76
32081;BME280;18593;51.426;7.030;2023-04-01T12:49:55;98767.03;;;11.51;87.64
32081;BME280;18593;51.426;7.030;2023-04-01T12:52:28;98764.63;;;11.50;87.73
32081;BME280;18593;51.426;7.030;2023-04-01T12:55:14;98777.69;;;11.46;86.92
32081;BME280;18593;51.426;7.030;2023-04-01T12:58:00;98773.97;;;11.47;87.15
32081;BME280;18593;51.426;7.030;2023-04-01T13:00:42;98774.22;;;11.46;87.33
32081;BME280;18593;51.426;7.030;2023-04-01T13:03:22;98786.25;;;11.48;87.59
32081;BME280;18593;51.426;7.030;2023-04-01T13:06:15;98778.75;;;11.45;86.91
32081;BME280;18593;51.426;7.030;2023-04-01T13:08:49;98790.50;;;11.44;87.09
32081;BME280;18593;51.426;7.030;2023-04-01T13:11:24;98787.03;;;11.44;86.82
32081;BME280;18593;51.426;7.030;2023-04-01T13:17:08;98793.66;;;11.41;86.75
32081;BME280;18593;51.426;7.030;2023-04-01T13:19:40;98799.00;;;11.41;87.14
32081;BME280;18593;51.426;7.030;2023-04-01T13:22:11;98794.75;;;11.40;87.16
32081;BME280;18593;51.426;7.030;2023-04-01T13:24:42;98795.31;;;11.42;87.15
32081;BME280;18593;51.426;7.030;2023-04-01T13:27:16;98799.00;;;11.41;86.65
32081;BME280;18593;51.426;7.030;2023-04-01T13:29:57;98805.16;;;11.42;86.58
32081;BME280;18593;51.426;7.030;2023-04-01T13:32:31;98803.03;;;11.44;86.71
32081;BME280;18593;51.426;7.030;2023-04-01T13:35:08;98812.66;;;11.45;86.59
32081;BME280;18593;51.426;7.030;2023-04-01T13:37:49;98812.66;;;11.45;86.61
32081;BME280;18593;51.426;7.030;2023-04-01T13:40:25;98814.50;;;11.39;86.17
32081;BME280;18593;51.426;7.030;2023-04-01T13:42:57;98819.03;;;11.39;86.41
32081;BME280;18593;51.426;7.030;2023-04-01T13:45:27;98825.97;;;11.40;86.35
32081;BME280;18593;51.426;7.030;2023-04-01T13:48:24;98825.69;;;11.41;86.40
32081;BME280;18593;51.426;7.030;2023-04-01T13:53:59;98826.28;;;11.43;86.81
32081;BME280;18593;51.426;7.030;2023-04-01T13:56:34;98824.41;;;11.44;86.73
32081;BME280;18593;51.426;7.030;2023-04-01T14:02:07;98836.66;;;11.40;86.20
32081;BME280;18593;51.426;7.030;2023-04-01T14:04:47;98844.94;;;11.43;86.38
32081;BME280;18593;51.426;7.030;2023-04-01T14:07:35;98832.13;;;11.45;86.34
32081;BME280;18593;51.426;7.030;2023-04-01T14:10:10;98846.28;;;11.46;86.00
32081;BME280;18593;51.426;7.030;2023-04-01T14:12:46;98843.34;;;11.42;85.88
32081;BME280;18593;51.426;7.030;2023-04-01T14:15:34;98846.81;;;11.43;85.87
32081;BME280;18593;51.426;7.030;2023-04-01T14:18:13;98845.19;;;11.42;85.74
32081;BME280;18593;51.426;7.030;2023-04-01T14:20:46;98849.50;;;11.43;85.80
32081;BME280;18593;51.426;7.030;2023-04-01T14:23:31;98850.28;;;11.43;85.74
32081;BME280;18593;51.426;7.030;2023-04-01T14:29:15;98848.44;;;11.44;85.17
32081;BME280;18593;51.426;7.030;2023-04-01T14:31:53;98858.03;;;11.45;85.35
32081;BME280;18593;51.426;7.030;2023-04-01T14:34:30;98869.28;;;11.47;84.98
32081;BME280;18593;51.426;7.030;2023-04-01T14:37:08;98858.03;;;11.45;85.29
32081;BME280;18593;51.426;7.030;2023-04-01T14:39:48;98866.31;;;11.43;84.82
32081;BME280;18593;51.426;7.030;2023-04-01T14:42:47;98863.03;;;11.36;85.36
32081;BME280;18593;51.426;7.030;2023-04-01T14:48:32;98875.84;;;11.34;86.37
32081;BME280;18593;51.426;7.030;2023-04-01T14:51:09;98873.72;;;11.36;86.57
32081;BME280;18593;51.426;7.030;2023-04-01T14:53:38;98881.50;;;11.38;86.59
32081;BME280;18593;51.426;7.030;2023-04-01T14:56:11;98883.09;;;11.39;86.82
32081;BME280;18593;51.426;7.030;2023-04-01T14:58:50;98883.88;;;11.39;86.91
32081;BME280;18593;51.426;7.030;2023-04-01T15:01:25;98882.28;;;11.38;86.92
32081;BME280;18593;51.426;7.030;2023-04-01T15:04:05;98891.09;;;11.39;87.40
32081;BME280;18593;51.426;7.030;2023-04-01T15:06:48;98894.88;;;11.43;87.27
32081;BME280;18593;51.426;7.030;2023-04-01T15:09:24;98893.81;;;11.44;87.52
32081;BME280;18593;51.426;7.030;2023-04-01T15:12:02;98900.75;;;11.45;87.56